createdAt,value
2023-03-06T00:00:54.175Z,3.60
2023-03-06T00:03:22.190Z,3.60
2023-03-06T00:05:48.951Z,3.60
2023-03-06T00:08:16.046Z,3.50
2023-03-06T00:10:42.736Z,3.50
2023-03-06T00:13:13.398Z,3.40
2023-03-06T00:15:40.468Z,3.30
2023-03-06T00:18:08.130Z,3.40
2023-03-06T00:20:35.537Z,3.50
2023-03-06T00:23:02.938Z,3.50
2023-03-06T00:25:29.626Z,3.60
2023-03-06T00:27:56.415Z,3.60
2023-03-06T00:30:24.754Z,3.70
2023-03-06T00:32:53.115Z,3.70
2023-03-06T00:35:20.243Z,3.70
2023-03-06T00:37:46.996Z,3.60
2023-03-06T00:40:17.356Z,3.60
2023-03-06T00:42:44.952Z,3.70
2023-03-06T00:45:11.852Z,3.70
2023-03-06T00:47:38.502Z,3.60
2023-03-06T00:50:05.554Z,3.80
2023-03-06T00:52:32.681Z,3.70
2023-03-06T00:54:59.511Z,3.70
2023-03-06T00:57:26.196Z,3.60
2023-03-06T00:59:52.832Z,3.60
2023-03-06T01:02:19.785Z,3.60
2023-03-06T01:04:46.500Z,3.70
2023-03-06T01:07:13.178Z,3.60
2023-03-06T01:09:39.810Z,3.50
2023-03-06T01:12:06.865Z,1.20
2023-03-06T01:14:33.549Z,3.50
2023-03-06T01:17:00.183Z,3.60
2023-03-06T01:19:26.836Z,3.40
2023-03-06T01:21:53.480Z,3.50
2023-03-06T01:24:20.207Z,3.30
2023-03-06T01:26:46.821Z,3.30
2023-03-06T01:29:13.429Z,3.30
2023-03-06T01:31:40.107Z,3.10
2023-03-06T01:34:06.792Z,3.10
2023-03-06T01:36:33.505Z,3.30
2023-03-06T01:39:00.142Z,3.00
2023-03-06T01:41:26.740Z,3.00
2023-03-06T01:43:53.400Z,2.90
2023-03-06T01:46:28.899Z,3.00
2023-03-06T01:49:01.045Z,1.10
2023-03-06T01:51:51.559Z,4.40
2023-03-06T01:54:24.245Z,3.10
2023-03-06T01:56:56.589Z,3.20
2023-03-06T01:59:24.791Z,3.30
2023-03-06T02:01:51.482Z,3.20
2023-03-06T02:04:18.725Z,3.20
2023-03-06T02:06:45.798Z,3.20
2023-03-06T02:09:13.675Z,3.20
2023-03-06T02:11:43.947Z,3.20
2023-03-06T02:14:17.045Z,3.10
2023-03-06T02:16:44.160Z,3.20
2023-03-06T02:19:30.123Z,3.10
2023-03-06T02:21:56.965Z,2.90
2023-03-06T02:24:35.676Z,3.00
2023-03-06T02:27:04.468Z,2.90
2023-03-06T02:29:31.618Z,2.90
2023-03-06T02:31:58.545Z,3.10
2023-03-06T02:34:25.464Z,3.00
2023-03-06T02:37:06.849Z,3.00
2023-03-06T02:39:37.530Z,3.10
2023-03-06T02:42:04.286Z,3.00
2023-03-06T02:44:32.886Z,3.00
2023-03-06T02:46:59.494Z,3.10
2023-03-06T02:49:26.559Z,3.10
2023-03-06T02:51:53.277Z,3.20
2023-03-06T02:54:19.902Z,2.40
2023-03-06T02:56:46.667Z,3.10
2023-03-06T02:59:13.372Z,3.20
2023-03-06T03:01:40.069Z,3.10
2023-03-06T03:04:06.716Z,3.00
2023-03-06T03:06:33.419Z,3.20
2023-03-06T03:09:00.040Z,3.20
2023-03-06T03:11:26.674Z,3.40
2023-03-06T03:13:53.355Z,3.30
2023-03-06T03:16:20.008Z,3.20
2023-03-06T03:18:48.080Z,3.30
2023-03-06T03:21:15.090Z,3.20
2023-03-06T03:23:41.761Z,3.20
2023-03-06T03:26:11.828Z,3.40
2023-03-06T03:28:38.530Z,3.50
2023-03-06T03:31:08.177Z,3.40
2023-03-06T03:33:35.566Z,3.40
2023-03-06T03:36:04.442Z,3.30
2023-03-06T03:38:31.278Z,3.40
2023-03-06T03:40:57.977Z,3.40
2023-03-06T03:43:24.547Z,3.40
2023-03-06T03:45:53.452Z,3.50
2023-03-06T03:48:20.534Z,3.40
2023-03-06T03:50:47.155Z,3.40
2023-03-06T03:53:13.818Z,3.40
2023-03-06T03:55:40.469Z,3.30
2023-03-06T03:58:07.091Z,3.40
2023-03-06T04:00:33.704Z,3.60
2023-03-06T04:03:00.289Z,3.50
2023-03-06T04:05:26.876Z,3.50
2023-03-06T04:07:53.492Z,3.50
2023-03-06T04:10:20.202Z,2.20
2023-03-06T04:12:46.800Z,3.40
2023-03-06T04:15:13.407Z,3.30
2023-03-06T04:17:40.019Z,3.40
2023-03-06T04:20:07.301Z,3.40
2023-03-06T04:22:33.890Z,3.40
2023-03-06T04:25:00.544Z,3.50
2023-03-06T04:27:27.169Z,3.50
2023-03-06T04:29:56.182Z,3.50
2023-03-06T04:32:23.865Z,3.50
2023-03-06T04:34:50.955Z,3.60
2023-03-06T04:37:23.742Z,3.40
2023-03-06T04:39:50.483Z,3.40
2023-03-06T04:42:17.566Z,3.30
2023-03-06T04:44:45.164Z,1.50
2023-03-06T04:47:12.318Z,3.30
2023-03-06T04:49:38.989Z,3.30
2023-03-06T04:52:05.945Z,3.20
2023-03-06T04:54:32.737Z,3.20
2023-03-06T04:56:59.468Z,3.20
2023-03-06T04:59:26.123Z,3.30
2023-03-06T05:01:52.998Z,3.20
2023-03-06T05:04:19.713Z,3.20
2023-03-06T05:06:46.417Z,3.10
2023-03-06T05:09:14.194Z,3.10
2023-03-06T05:11:40.847Z,3.10
2023-03-06T05:14:07.450Z,3.00
2023-03-06T05:16:34.029Z,3.00
2023-03-06T05:19:00.607Z,2.90
2023-03-06T05:21:27.265Z,2.90
2023-03-06T05:23:53.854Z,2.90
2023-03-06T05:26:20.562Z,2.90
2023-03-06T05:28:47.183Z,2.70
2023-03-06T05:31:13.902Z,2.80
2023-03-06T05:33:40.539Z,2.80
2023-03-06T05:36:09.334Z,2.90
2023-03-06T05:38:36.000Z,2.80
2023-03-06T05:41:02.697Z,2.80
2023-03-06T05:43:29.406Z,2.80
2023-03-06T05:46:06.322Z,3.50
2023-03-06T05:48:34.336Z,2.80
2023-03-06T05:51:02.139Z,2.80
2023-03-06T05:53:29.352Z,2.70
2023-03-06T05:56:04.548Z,2.40
2023-03-06T05:58:32.413Z,2.70
2023-03-06T06:00:59.352Z,2.50
2023-03-06T06:03:26.041Z,2.60
2023-03-06T06:05:52.691Z,2.70
2023-03-06T06:08:20.326Z,2.50
2023-03-06T06:10:46.934Z,2.50
2023-03-06T06:13:13.534Z,2.60
2023-03-06T06:15:40.150Z,2.60
2023-03-06T06:18:07.031Z,2.80
2023-03-06T06:20:33.648Z,2.70
2023-03-06T06:23:00.575Z,2.70
2023-03-06T06:25:27.232Z,3.10
2023-03-06T06:27:56.356Z,3.50
2023-03-06T06:30:23.213Z,3.40
2023-03-06T06:32:50.236Z,3.10
2023-03-06T06:35:17.310Z,3.00
2023-03-06T06:37:44.050Z,2.90
2023-03-06T06:40:11.388Z,2.90
2023-03-06T06:42:40.111Z,2.70
2023-03-06T06:45:08.311Z,2.70
2023-03-06T06:47:35.011Z,2.90
2023-03-06T06:50:01.649Z,2.70
2023-03-06T06:52:28.379Z,2.80
2023-03-06T06:54:55.157Z,3.20
2023-03-06T06:57:21.965Z,3.60
2023-03-06T06:59:48.742Z,3.40
2023-03-06T07:02:16.652Z,3.00
2023-03-06T07:05:02.114Z,2.90
2023-03-06T07:07:30.233Z,2.90
2023-03-06T07:09:56.938Z,2.80
2023-03-06T07:12:23.739Z,2.90
2023-03-06T07:14:50.510Z,2.90
2023-03-06T07:17:17.174Z,3.00
2023-03-06T07:19:43.759Z,2.80
2023-03-06T07:22:10.516Z,2.90
2023-03-06T07:24:37.167Z,3.00
2023-03-06T07:27:03.928Z,3.00
2023-03-06T07:29:32.964Z,3.00
2023-03-06T07:31:59.826Z,3.00
2023-03-06T07:34:26.518Z,2.90
2023-03-06T07:36:53.122Z,2.80
2023-03-06T07:39:19.701Z,2.80
2023-03-06T07:41:46.271Z,2.80
2023-03-06T07:44:12.861Z,3.00
2023-03-06T07:46:39.430Z,3.10
2023-03-06T07:49:06.029Z,3.10
2023-03-06T07:51:32.704Z,3.00
2023-03-06T07:53:59.327Z,3.00
2023-03-06T07:56:25.980Z,3.00
2023-03-06T07:58:52.646Z,3.00
2023-03-06T08:01:20.785Z,3.20
2023-03-06T08:03:49.869Z,3.00
2023-03-06T08:06:25.858Z,3.10
2023-03-06T08:08:54.241Z,3.20
2023-03-06T08:11:23.881Z,3.30
2023-03-06T08:13:52.630Z,3.20
2023-03-06T08:16:23.779Z,3.00
2023-03-06T08:18:50.494Z,3.00
2023-03-06T08:21:21.025Z,3.10
2023-03-06T08:23:48.230Z,3.20
2023-03-06T08:26:17.898Z,3.40
2023-03-06T08:28:45.024Z,3.50
2023-03-06T08:31:29.389Z,3.70
2023-03-06T08:33:58.413Z,3.70
2023-03-06T08:36:25.429Z,3.60
2023-03-06T08:38:52.248Z,3.40
2023-03-06T08:41:20.385Z,3.30
2023-03-06T08:43:47.596Z,3.30
2023-03-06T08:46:14.845Z,3.10
2023-03-06T08:48:41.767Z,3.30
2023-03-06T08:51:09.549Z,2.80
2023-03-06T08:53:43.104Z,3.20
2023-03-06T08:56:36.610Z,3.20
2023-03-06T08:59:05.644Z,3.10
2023-03-06T09:01:35.126Z,3.10
2023-03-06T09:04:07.760Z,3.20
2023-03-06T09:06:37.298Z,3.10
2023-03-06T09:09:05.113Z,3.30
2023-03-06T09:11:32.287Z,3.30
2023-03-06T09:13:59.336Z,3.50
2023-03-06T09:16:26.512Z,3.50
2023-03-06T09:18:54.089Z,3.50
2023-03-06T09:21:22.025Z,3.60
2023-03-06T09:23:48.710Z,3.80
2023-03-06T09:26:15.424Z,3.70
2023-03-06T09:28:42.164Z,3.80
2023-03-06T09:31:11.163Z,3.70
2023-03-06T09:33:38.509Z,3.60
2023-03-06T09:36:07.152Z,3.50
2023-03-06T09:38:34.305Z,3.40
2023-03-06T09:41:22.723Z,3.40
2023-03-06T09:43:53.181Z,3.30
2023-03-06T09:46:38.420Z,3.30
2023-03-06T09:49:42.952Z,3.50
2023-03-06T09:52:29.304Z,3.50
2023-03-06T09:55:09.073Z,3.60
2023-03-06T09:57:38.647Z,3.70
2023-03-06T10:00:12.728Z,3.90
2023-03-06T10:02:44.876Z,3.90
2023-03-06T10:05:25.410Z,4.00
2023-03-06T10:08:04.300Z,3.90
2023-03-06T10:11:05.477Z,3.90
2023-03-06T10:13:47.896Z,4.10
2023-03-06T10:16:23.797Z,4.20
2023-03-06T10:18:51.054Z,4.40
2023-03-06T10:21:47.552Z,4.30
2023-03-06T10:24:26.897Z,4.00
2023-03-06T10:27:16.697Z,4.00
2023-03-06T10:30:02.227Z,4.10
2023-03-06T10:32:59.784Z,4.10
2023-03-06T10:35:33.017Z,4.10
2023-03-06T10:38:18.300Z,4.20
2023-03-06T10:40:52.048Z,4.20
2023-03-06T10:43:18.990Z,4.30
2023-03-06T10:45:49.708Z,4.50
2023-03-06T10:48:20.834Z,4.40
2023-03-06T10:50:47.634Z,4.50
2023-03-06T10:53:21.543Z,4.60
2023-03-06T10:55:55.193Z,4.50
2023-03-06T10:58:29.341Z,4.40
2023-03-06T11:01:17.104Z,4.50
2023-03-06T11:03:43.785Z,4.40
2023-03-06T11:06:34.977Z,4.40
2023-03-06T11:09:23.440Z,4.50
2023-03-06T11:11:51.086Z,4.50
2023-03-06T11:14:22.816Z,4.70
2023-03-06T11:16:54.602Z,4.70
2023-03-06T11:19:27.188Z,4.90
2023-03-06T11:22:05.497Z,4.70
2023-03-06T11:24:44.659Z,4.70
2023-03-06T11:27:36.123Z,4.70
2023-03-06T11:30:14.500Z,5.00
2023-03-06T11:32:44.134Z,5.10
2023-03-06T11:35:16.572Z,5.00
2023-03-06T11:37:49.530Z,5.00
2023-03-06T11:40:32.433Z,5.30
2023-03-06T11:43:25.088Z,5.40
2023-03-06T11:46:23.568Z,5.50
2023-03-06T11:49:01.292Z,5.50
2023-03-06T11:51:35.241Z,5.50
2023-03-06T11:54:02.938Z,5.60
2023-03-06T11:56:48.487Z,5.60
2023-03-06T11:59:50.863Z,5.70
2023-03-06T12:02:59.040Z,5.70
2023-03-06T12:05:25.730Z,5.30
2023-03-06T12:08:17.368Z,5.50
2023-03-06T12:10:52.035Z,5.50
2023-03-06T12:13:37.742Z,5.50
2023-03-06T12:16:40.692Z,5.70
2023-03-06T12:19:36.098Z,5.80
2023-03-06T12:22:17.799Z,4.10
2023-03-06T12:24:59.124Z,5.90
2023-03-06T12:27:52.745Z,5.90
2023-03-06T12:30:25.104Z,5.90
2023-03-06T12:33:20.380Z,5.90
2023-03-06T12:36:16.567Z,6.00
2023-03-06T12:39:07.821Z,6.00
2023-03-06T12:41:45.359Z,6.00
2023-03-06T12:44:26.948Z,6.10
2023-03-06T12:47:01.906Z,6.10
2023-03-06T12:49:33.016Z,5.90
2023-03-06T12:52:01.296Z,5.90
2023-03-06T12:54:31.369Z,5.80
2023-03-06T12:57:00.191Z,5.80
2023-03-06T12:59:44.687Z,6.00
2023-03-06T13:02:26.253Z,6.10
2023-03-06T13:05:13.853Z,6.30
2023-03-06T13:08:04.910Z,6.30
2023-03-06T13:10:34.110Z,6.30
2023-03-06T13:13:02.494Z,6.30
2023-03-06T13:16:10.572Z,8.20
2023-03-06T13:18:37.367Z,6.30
2023-03-06T13:21:04.454Z,6.30
2023-03-06T13:23:33.800Z,8.10
2023-03-06T13:26:02.751Z,9.20
2023-03-06T13:28:29.400Z,8.40
2023-03-06T13:30:56.149Z,7.30
2023-03-06T13:33:30.033Z,6.80
2023-03-06T13:35:58.047Z,6.50
2023-03-06T13:38:35.431Z,6.10
2023-03-06T13:41:21.068Z,5.90
2023-03-06T13:43:49.456Z,6.00
2023-03-06T13:46:26.200Z,6.10
2023-03-06T13:49:10.661Z,6.10
2023-03-06T13:51:53.591Z,6.00
2023-03-06T13:54:26.353Z,5.90
2023-03-06T13:57:05.249Z,5.90
2023-03-06T14:00:03.074Z,6.00
2023-03-06T14:03:10.558Z,6.00
2023-03-06T14:05:43.353Z,6.00
2023-03-06T14:08:28.645Z,6.00
2023-03-06T14:11:00.799Z,5.90
2023-03-06T14:13:45.251Z,6.00
2023-03-06T14:16:23.057Z,6.00
2023-03-06T14:18:52.317Z,6.10
2023-03-06T14:21:30.726Z,6.20
2023-03-06T14:24:03.756Z,6.30
2023-03-06T14:26:51.376Z,6.30
2023-03-06T14:29:26.335Z,6.20
2023-03-06T14:31:55.575Z,6.00
2023-03-06T14:34:26.891Z,6.00
2023-03-06T14:36:55.590Z,6.20
2023-03-06T14:39:37.229Z,6.10
2023-03-06T14:42:17.460Z,6.10
2023-03-06T14:44:44.835Z,6.10
2023-03-06T14:47:27.450Z,6.20
2023-03-06T14:50:26.410Z,6.00
2023-03-06T14:52:58.750Z,6.00
2023-03-06T14:55:27.847Z,6.10
2023-03-06T14:58:03.626Z,6.10
2023-03-06T15:00:35.782Z,6.00
2023-03-06T15:03:07.417Z,6.10
2023-03-06T15:05:34.953Z,6.20
2023-03-06T15:08:05.188Z,6.10
2023-03-06T15:10:33.850Z,6.10
2023-03-06T15:13:23.636Z,6.10
2023-03-06T15:16:01.661Z,6.00
2023-03-06T15:18:38.820Z,5.90
2023-03-06T15:21:22.629Z,6.00
2023-03-06T15:23:51.553Z,5.90
2023-03-06T15:26:29.544Z,6.00
2023-03-06T15:29:08.319Z,5.90
2023-03-06T15:31:38.162Z,5.90
2023-03-06T15:34:16.683Z,6.00
2023-03-06T15:36:48.016Z,6.00
2023-03-06T15:39:29.895Z,6.00
2023-03-06T15:42:21.184Z,6.10
2023-03-06T15:44:53.925Z,6.10
2023-03-06T15:47:22.530Z,6.00
2023-03-06T15:49:52.045Z,6.10
2023-03-06T15:52:22.905Z,6.10
2023-03-06T15:54:49.631Z,6.10
2023-03-06T15:57:29.291Z,6.10
2023-03-06T15:59:57.663Z,6.20
2023-03-06T16:02:24.504Z,6.10
2023-03-06T16:04:51.983Z,6.10
2023-03-06T16:07:18.881Z,6.10
2023-03-06T16:09:45.488Z,6.20
2023-03-06T16:12:17.423Z,6.20
2023-03-06T16:14:45.400Z,6.10
2023-03-06T16:17:12.595Z,6.00
2023-03-06T16:19:39.798Z,6.80
2023-03-06T16:22:06.514Z,6.10
2023-03-06T16:24:33.135Z,6.00
2023-03-06T16:27:01.876Z,6.00
2023-03-06T16:29:29.661Z,6.00
2023-03-06T16:31:57.999Z,6.10
2023-03-06T16:34:24.820Z,6.10
2023-03-06T16:36:51.752Z,6.30
2023-03-06T16:39:21.090Z,6.40
2023-03-06T16:41:49.398Z,6.20
2023-03-06T16:44:16.482Z,6.10
2023-03-06T16:46:46.858Z,6.10
2023-03-06T16:49:18.311Z,6.20
2023-03-06T16:51:45.366Z,6.20
2023-03-06T16:54:12.664Z,6.10
2023-03-06T16:56:39.433Z,6.10
2023-03-06T16:59:06.211Z,6.10
2023-03-06T17:01:33.045Z,6.00
2023-03-06T17:03:59.847Z,6.00
2023-03-06T17:06:26.459Z,5.80
2023-03-06T17:08:53.066Z,5.70
2023-03-06T17:11:20.408Z,5.70
2023-03-06T17:13:48.185Z,5.70
2023-03-06T17:16:18.233Z,5.60
2023-03-06T17:18:46.351Z,7.70
2023-03-06T17:21:17.286Z,5.70
2023-03-06T17:23:44.629Z,5.60
2023-03-06T17:26:18.746Z,5.60
2023-03-06T17:28:46.259Z,5.70
2023-03-06T17:31:18.550Z,5.60
2023-03-06T17:33:45.828Z,5.60
2023-03-06T17:36:16.921Z,5.70
2023-03-06T17:38:43.786Z,5.60
2023-03-06T17:41:11.378Z,5.60
2023-03-06T17:43:38.945Z,5.50
2023-03-06T17:46:10.747Z,5.60
2023-03-06T17:48:38.013Z,5.50
2023-03-06T17:51:05.873Z,5.50
2023-03-06T17:53:32.748Z,5.60
2023-03-06T17:55:59.608Z,5.60
2023-03-06T17:58:26.929Z,5.50
2023-03-06T18:00:54.067Z,5.50
2023-03-06T18:03:20.782Z,5.40
2023-03-06T18:05:47.440Z,5.50
2023-03-06T18:08:14.155Z,5.40
2023-03-06T18:10:41.862Z,5.50
2023-03-06T18:13:09.816Z,5.60
2023-03-06T18:15:41.094Z,5.60
2023-03-06T18:18:08.211Z,5.50
2023-03-06T18:20:40.127Z,5.50
2023-03-06T18:23:06.777Z,7.70
2023-03-06T18:25:33.494Z,5.50
2023-03-06T18:28:00.125Z,5.50
2023-03-06T18:30:27.138Z,5.60
2023-03-06T18:32:54.499Z,5.60
2023-03-06T18:35:21.703Z,5.50
2023-03-06T18:37:48.433Z,5.50
2023-03-06T18:40:15.614Z,5.50
2023-03-06T18:42:42.332Z,5.40
2023-03-06T18:45:10.101Z,5.50
2023-03-06T18:47:36.980Z,5.50
2023-03-06T18:50:03.979Z,5.50
2023-03-06T18:52:30.622Z,5.60
2023-03-06T18:54:57.458Z,5.60
2023-03-06T18:57:24.108Z,5.70
2023-03-06T18:59:50.727Z,5.70
2023-03-06T19:02:17.438Z,5.60
2023-03-06T19:04:44.055Z,5.60
2023-03-06T19:07:13.118Z,5.70
2023-03-06T19:09:39.884Z,5.60
2023-03-06T19:12:06.795Z,5.50
2023-03-06T19:14:33.489Z,5.50
2023-03-06T19:17:00.223Z,5.40
2023-03-06T19:19:29.138Z,5.40
2023-03-06T19:21:58.170Z,5.30
2023-03-06T19:24:25.120Z,5.20
2023-03-06T19:26:52.196Z,5.40
2023-03-06T19:29:18.817Z,5.30
2023-03-06T19:31:45.473Z,5.30
2023-03-06T19:34:12.125Z,5.40
2023-03-06T19:36:40.829Z,7.70
2023-03-06T19:39:10.417Z,5.40
2023-03-06T19:41:37.243Z,5.30
2023-03-06T19:44:05.685Z,5.30
2023-03-06T19:46:33.019Z,5.40
2023-03-06T19:49:01.656Z,5.50
2023-03-06T19:51:28.624Z,5.60
2023-03-06T19:53:56.857Z,5.60
2023-03-06T19:56:26.156Z,5.60
2023-03-06T19:58:53.527Z,5.60
2023-03-06T20:01:21.951Z,5.60
2023-03-06T20:03:50.822Z,5.60
2023-03-06T20:06:20.137Z,5.50
2023-03-06T20:08:47.943Z,5.50
2023-03-06T20:11:19.657Z,3.60
2023-03-06T20:13:47.961Z,5.50
2023-03-06T20:16:16.229Z,5.40
2023-03-06T20:18:43.550Z,5.40
2023-03-06T20:21:10.256Z,5.40
2023-03-06T20:23:36.961Z,5.40
2023-03-06T20:26:06.257Z,5.50
2023-03-06T20:28:33.860Z,5.40
2023-03-06T20:31:13.518Z,5.60
2023-03-06T20:33:40.313Z,5.60
2023-03-06T20:36:16.885Z,5.50
2023-03-06T20:38:44.395Z,5.50
2023-03-06T20:41:23.152Z,7.30
2023-03-06T20:43:50.262Z,5.40
2023-03-06T20:46:22.117Z,5.30
2023-03-06T20:48:50.857Z,5.30
2023-03-06T20:51:22.124Z,5.30
2023-03-06T20:53:50.589Z,5.20
2023-03-06T20:56:22.460Z,5.20
2023-03-06T20:58:49.701Z,5.00
2023-03-06T21:01:24.687Z,5.00
2023-03-06T21:03:51.934Z,4.90
2023-03-06T21:06:18.970Z,4.90
2023-03-06T21:08:46.150Z,5.00
2023-03-06T21:11:13.093Z,5.00
2023-03-06T21:13:40.176Z,4.90
2023-03-06T21:16:09.938Z,4.90
2023-03-06T21:18:36.821Z,4.90
2023-03-06T21:21:18.479Z,4.90
2023-03-06T21:23:47.345Z,4.90
2023-03-06T21:26:19.422Z,5.00
2023-03-06T21:28:46.541Z,5.00
2023-03-06T21:31:15.882Z,4.90
2023-03-06T21:33:43.091Z,4.80
2023-03-06T21:36:10.172Z,5.10
2023-03-06T21:38:38.843Z,5.10
2023-03-06T21:41:18.965Z,5.00
2023-03-06T21:43:45.784Z,5.10
2023-03-06T21:46:12.738Z,5.00
2023-03-06T21:48:39.381Z,5.10
2023-03-06T21:51:11.494Z,5.00
2023-03-06T21:53:41.521Z,4.90
2023-03-06T21:56:08.996Z,4.90
2023-03-06T21:58:35.673Z,4.90
2023-03-06T22:01:02.847Z,5.00
2023-03-06T22:03:29.853Z,5.00
2023-03-06T22:05:56.678Z,6.20
2023-03-06T22:08:25.045Z,5.00
2023-03-06T22:10:52.464Z,5.00
2023-03-06T22:13:19.413Z,5.00
2023-03-06T22:15:53.138Z,5.00
2023-03-06T22:18:20.201Z,5.00
2023-03-06T22:20:47.233Z,5.10
2023-03-06T22:23:13.894Z,5.00
2023-03-06T22:25:40.600Z,5.00
2023-03-06T22:28:07.737Z,5.10
2023-03-06T22:30:34.772Z,5.00
2023-03-06T22:33:01.603Z,5.10
2023-03-06T22:35:28.238Z,5.10
2023-03-06T22:37:55.022Z,5.10
2023-03-06T22:40:21.911Z,5.10
2023-03-06T22:42:48.592Z,5.10
2023-03-06T22:45:15.295Z,5.30
2023-03-06T22:47:41.964Z,5.20
2023-03-06T22:50:09.940Z,5.20
2023-03-06T22:52:36.576Z,5.20
2023-03-06T22:55:03.344Z,5.10
2023-03-06T22:57:30.024Z,5.10
2023-03-06T22:59:56.752Z,4.90
2023-03-06T23:02:23.357Z,4.90
2023-03-06T23:04:53.483Z,4.70
2023-03-06T23:07:20.985Z,4.70
2023-03-06T23:09:47.626Z,4.80
2023-03-06T23:12:14.386Z,4.70
2023-03-06T23:14:41.086Z,4.90
2023-03-06T23:17:07.731Z,4.40
2023-03-06T23:19:34.553Z,4.50
2023-03-06T23:22:01.178Z,4.40
2023-03-06T23:24:28.661Z,4.40
2023-03-06T23:26:55.376Z,4.50
2023-03-06T23:29:22.398Z,4.30
2023-03-06T23:31:49.030Z,4.40
2023-03-06T23:34:15.705Z,4.40
2023-03-06T23:36:42.332Z,3.00
2023-03-06T23:39:12.502Z,4.30
2023-03-06T23:41:39.112Z,4.40
2023-03-06T23:44:05.874Z,4.50
2023-03-06T23:46:32.485Z,4.40
2023-03-06T23:48:59.125Z,4.30
2023-03-06T23:51:25.825Z,4.30
2023-03-06T23:53:58.082Z,4.40
2023-03-06T23:56:26.027Z,4.40
2023-03-06T23:58:52.680Z,4.50
